createdAt,value
2023-03-11T00:03:24.784Z,85.03
2023-03-11T00:06:46.491Z,85.30
2023-03-11T00:10:09.208Z,85.56
2023-03-11T00:13:31.498Z,85.32
2023-03-11T00:16:53.470Z,85.50
2023-03-11T00:20:21.564Z,85.85
2023-03-11T00:23:43.828Z,84.93
2023-03-11T00:27:06.884Z,85.22
2023-03-11T00:30:29.519Z,84.55
2023-03-11T00:33:51.445Z,84.86
2023-03-11T00:37:14.758Z,84.66
2023-03-11T00:40:37.535Z,85.23
2023-03-11T00:43:58.953Z,85.38
2023-03-11T00:47:20.844Z,85.99
2023-03-11T00:50:43.534Z,86.26
2023-03-11T00:54:07.269Z,85.33
2023-03-11T00:57:29.280Z,85.40
2023-03-11T01:00:50.850Z,85.67
2023-03-11T01:04:12.804Z,85.76
2023-03-11T01:07:34.803Z,85.67
2023-03-11T01:10:59.651Z,86.52
2023-03-11T01:14:21.511Z,86.60
2023-03-11T01:17:43.408Z,87.18
2023-03-11T01:21:05.358Z,87.50
2023-03-11T01:24:27.358Z,87.74
2023-03-11T01:27:50.461Z,87.58
2023-03-11T01:31:12.552Z,88.72
2023-03-11T01:34:36.125Z,88.72
2023-03-11T01:37:58.282Z,89.03
2023-03-11T01:41:20.044Z,89.39
2023-03-11T01:44:43.726Z,91.17
2023-03-11T01:48:07.522Z,90.86
2023-03-11T01:51:33.831Z,90.80
2023-03-11T01:54:55.678Z,91.54
2023-03-11T01:58:21.948Z,90.68
2023-03-11T02:01:53.847Z,90.66
2023-03-11T02:05:16.289Z,91.03
2023-03-11T02:08:38.232Z,90.70
2023-03-11T02:12:02.207Z,91.22
2023-03-11T02:15:27.051Z,90.96
2023-03-11T02:18:50.113Z,89.88
2023-03-11T02:22:14.056Z,90.64
2023-03-11T02:25:42.913Z,89.91
2023-03-11T02:29:08.924Z,89.71
2023-03-11T02:32:31.345Z,89.72
2023-03-11T02:35:53.382Z,89.58
2023-03-11T02:39:15.432Z,90.09
2023-03-11T02:42:37.416Z,89.98
2023-03-11T02:46:00.914Z,90.19
2023-03-11T02:49:24.517Z,91.02
2023-03-11T02:52:46.442Z,89.97
2023-03-11T02:56:08.579Z,89.58
2023-03-11T02:59:30.351Z,89.36
2023-03-11T03:02:55.440Z,89.15
2023-03-11T03:06:17.561Z,89.29
2023-03-11T03:09:39.431Z,89.32
2023-03-11T03:13:00.856Z,88.44
2023-03-11T03:16:22.958Z,88.91
2023-03-11T03:19:46.249Z,88.83
2023-03-11T03:23:08.792Z,88.77
2023-03-11T03:26:30.520Z,88.45
2023-03-11T03:29:52.339Z,88.59
2023-03-11T03:33:14.837Z,88.13
2023-03-11T03:36:38.508Z,88.11
2023-03-11T03:40:00.686Z,87.99
2023-03-11T03:43:24.508Z,87.80
2023-03-11T03:46:46.395Z,88.19
2023-03-11T03:50:12.333Z,87.75
2023-03-11T03:53:38.776Z,88.01
2023-03-11T03:57:00.996Z,88.09
2023-03-11T04:00:25.696Z,88.48
2023-03-11T04:03:53.138Z,88.59
2023-03-11T04:07:16.137Z,88.76
2023-03-11T04:10:40.122Z,88.59
2023-03-11T04:14:02.554Z,87.82
2023-03-11T04:17:25.807Z,87.80
2023-03-11T04:20:49.561Z,88.10
2023-03-11T04:24:11.412Z,88.45
2023-03-11T04:27:35.546Z,88.15
2023-03-11T04:30:59.263Z,88.24
2023-03-11T04:34:21.668Z,88.38
2023-03-11T04:37:44.347Z,87.83
2023-03-11T04:41:08.577Z,88.00
2023-03-11T04:44:36.173Z,88.25
2023-03-11T04:47:58.885Z,87.54
2023-03-11T04:51:21.356Z,87.55
2023-03-11T04:54:43.060Z,87.63
2023-03-11T04:58:05.222Z,87.68
2023-03-11T05:01:30.371Z,87.68
2023-03-11T05:04:55.825Z,88.04
2023-03-11T05:08:18.004Z,88.14
2023-03-11T05:11:39.787Z,87.86
2023-03-11T05:15:01.766Z,88.06
2023-03-11T05:18:24.997Z,87.79
2023-03-11T05:21:46.828Z,87.10
2023-03-11T05:25:09.337Z,86.76
2023-03-11T05:28:32.400Z,86.94
2023-03-11T05:31:55.125Z,87.61
2023-03-11T05:35:18.555Z,88.49
2023-03-11T05:38:40.363Z,87.98
2023-03-11T05:42:02.608Z,87.65
2023-03-11T05:45:24.282Z,87.97
2023-03-11T05:48:48.213Z,87.18
2023-03-11T05:52:12.178Z,86.61
2023-03-11T05:55:33.631Z,86.99
2023-03-11T05:58:58.406Z,86.86
2023-03-11T06:02:23.240Z,87.11
2023-03-11T06:05:46.356Z,87.15
2023-03-11T06:09:13.268Z,87.07
2023-03-11T06:12:36.309Z,86.09
2023-03-11T06:16:08.423Z,86.30
2023-03-11T06:19:30.305Z,86.71
2023-03-11T06:22:52.223Z,85.88
2023-03-11T06:26:21.108Z,85.68
2023-03-11T06:29:42.543Z,85.22
2023-03-11T06:33:05.053Z,85.63
2023-03-11T06:36:26.745Z,85.19
2023-03-11T06:39:48.433Z,85.80
2023-03-11T06:43:16.191Z,84.83
2023-03-11T06:46:39.658Z,84.57
2023-03-11T06:50:06.172Z,84.66
2023-03-11T06:53:30.339Z,85.21
2023-03-11T06:56:52.728Z,85.58
2023-03-11T07:00:18.403Z,85.11
2023-03-11T07:03:47.280Z,85.25
2023-03-11T07:07:09.217Z,85.40
2023-03-11T07:10:31.095Z,85.37
2023-03-11T07:13:53.186Z,84.96
2023-03-11T07:17:16.704Z,83.79
2023-03-11T07:20:43.592Z,83.36
2023-03-11T07:24:06.377Z,81.75
2023-03-11T07:27:29.428Z,81.46
2023-03-11T07:30:51.506Z,81.55
2023-03-11T07:34:15.296Z,81.15
2023-03-11T07:37:36.752Z,81.45
2023-03-11T07:41:01.582Z,81.14
2023-03-11T07:44:23.261Z,80.79
2023-03-11T07:47:44.575Z,80.35
2023-03-11T07:51:11.586Z,80.97
2023-03-11T07:54:33.587Z,81.20
2023-03-11T07:57:55.543Z,80.76
2023-03-11T08:01:19.546Z,81.19
2023-03-11T08:04:41.011Z,81.16
2023-03-11T08:08:04.332Z,81.27
2023-03-11T08:11:26.128Z,80.53
2023-03-11T08:14:47.777Z,79.15
2023-03-11T08:18:11.069Z,79.98
2023-03-11T08:21:33.051Z,79.68
2023-03-11T08:24:56.671Z,79.79
2023-03-11T08:28:18.488Z,78.57
2023-03-11T08:31:40.518Z,78.78
2023-03-11T08:35:02.169Z,79.61
2023-03-11T08:38:23.929Z,78.77
2023-03-11T08:41:47.217Z,78.97
2023-03-11T08:45:10.309Z,79.39
2023-03-11T08:48:31.916Z,79.16
2023-03-11T08:51:53.652Z,77.72
2023-03-11T08:55:18.492Z,78.30
2023-03-11T08:58:41.367Z,78.79
2023-03-11T09:02:03.223Z,78.46
2023-03-11T09:05:24.719Z,77.18
2023-03-11T09:08:47.723Z,77.47
2023-03-11T09:12:13.915Z,76.68
2023-03-11T09:15:38.784Z,76.21
2023-03-11T09:19:03.975Z,76.24
2023-03-11T09:22:25.718Z,75.81
2023-03-11T09:25:47.551Z,75.80
2023-03-11T09:31:43.943Z,76.07
2023-03-11T09:35:06.219Z,76.23
2023-03-11T09:38:27.856Z,76.35
2023-03-11T09:41:58.265Z,74.63
2023-03-11T09:45:22.711Z,74.24
2023-03-11T09:48:50.095Z,75.21
2023-03-11T09:52:13.665Z,75.43
2023-03-11T09:55:39.982Z,73.08
2023-03-11T09:59:06.106Z,73.18
2023-03-11T10:02:28.523Z,72.90
2023-03-11T10:05:52.747Z,73.18
2023-03-11T10:09:30.202Z,74.18
2023-03-11T10:13:00.602Z,71.13
2023-03-11T10:16:33.765Z,70.78
2023-03-11T10:20:05.044Z,70.31
2023-03-11T10:23:43.229Z,71.49
2023-03-11T10:27:14.792Z,71.53
2023-03-11T10:30:41.941Z,71.50
2023-03-11T10:34:07.747Z,70.95
2023-03-11T10:37:48.389Z,70.88
2023-03-11T10:41:20.017Z,70.70
2023-03-11T10:44:43.367Z,67.25
2023-03-11T10:48:11.186Z,67.54
2023-03-11T10:51:36.056Z,68.84
2023-03-11T10:55:02.927Z,69.36
2023-03-11T10:58:30.325Z,68.76
2023-03-11T11:01:56.453Z,69.39
2023-03-11T11:05:32.700Z,71.26
2023-03-11T11:09:15.450Z,71.49
2023-03-11T11:12:36.919Z,71.31
2023-03-11T11:16:03.134Z,70.93
2023-03-11T11:19:24.787Z,70.17
2023-03-11T11:22:52.444Z,71.04
2023-03-11T11:26:20.486Z,69.64
2023-03-11T11:29:43.158Z,69.73
2023-03-11T11:33:28.893Z,70.01
2023-03-11T11:36:51.359Z,70.27
2023-03-11T11:40:24.969Z,70.81
2023-03-11T11:43:50.758Z,71.51
2023-03-11T11:47:18.428Z,72.00
2023-03-11T11:50:45.642Z,70.21
2023-03-11T11:54:17.521Z,70.48
2023-03-11T11:57:39.076Z,70.02
2023-03-11T12:01:14.872Z,70.17
2023-03-11T12:04:50.013Z,68.32
2023-03-11T12:08:19.053Z,68.94
2023-03-11T12:11:45.094Z,68.98
2023-03-11T12:15:15.351Z,68.83
2023-03-11T12:18:42.413Z,69.17
2023-03-11T12:22:32.711Z,69.93
2023-03-11T12:26:06.255Z,68.12
2023-03-11T12:29:32.634Z,66.69
2023-03-11T12:32:57.884Z,65.81
2023-03-11T12:36:26.745Z,66.80
2023-03-11T12:39:48.328Z,66.21
2023-03-11T12:43:29.982Z,66.57
2023-03-11T12:47:03.886Z,66.87
2023-03-11T12:50:41.238Z,67.26
2023-03-11T12:54:23.667Z,67.80
2023-03-11T12:57:55.281Z,68.08
2023-03-11T13:01:33.528Z,67.62
2023-03-11T13:05:01.039Z,67.25
2023-03-11T13:08:24.482Z,68.76
2023-03-11T13:11:47.980Z,67.57
2023-03-11T13:15:31.436Z,68.72
2023-03-11T13:18:54.952Z,68.28
2023-03-11T13:22:57.926Z,67.83
2023-03-11T13:26:40.173Z,66.62
2023-03-11T13:30:10.439Z,66.81
2023-03-11T13:33:46.516Z,67.12
2023-03-11T13:37:22.846Z,66.00
2023-03-11T13:40:46.065Z,65.66
2023-03-11T13:44:15.975Z,65.25
2023-03-11T13:47:39.924Z,65.84
2023-03-11T13:51:05.308Z,65.92
2023-03-11T13:54:36.850Z,65.21
2023-03-11T13:57:59.704Z,65.18
2023-03-11T14:01:21.849Z,65.60
2023-03-11T14:04:49.992Z,65.62
2023-03-11T14:08:21.712Z,64.56
2023-03-11T14:11:47.960Z,63.46
2023-03-11T14:15:14.249Z,63.22
2023-03-11T14:18:39.069Z,64.24
2023-03-11T14:22:00.628Z,64.26
2023-03-11T14:25:25.841Z,64.66
2023-03-11T14:28:52.465Z,62.97
2023-03-11T14:32:25.029Z,63.21
2023-03-11T14:35:53.629Z,64.22
2023-03-11T14:39:31.027Z,64.02
2023-03-11T14:42:54.930Z,62.64
2023-03-11T14:46:22.462Z,62.63
2023-03-11T14:49:44.896Z,61.47
2023-03-11T14:53:10.037Z,60.53
2023-03-11T14:56:36.885Z,61.30
2023-03-11T14:59:59.028Z,60.40
2023-03-11T15:03:28.831Z,60.25
2023-03-11T15:06:51.062Z,60.79
2023-03-11T15:10:13.950Z,61.44
2023-03-11T15:13:37.614Z,61.91
2023-03-11T15:17:33.134Z,62.66
2023-03-11T15:21:16.337Z,61.69
2023-03-11T15:24:38.267Z,60.03
2023-03-11T15:28:00.261Z,59.46
2023-03-11T15:31:34.373Z,59.87
2023-03-11T15:35:04.648Z,60.74
2023-03-11T15:38:28.481Z,60.63
2023-03-11T15:42:01.056Z,61.04
2023-03-11T15:45:22.752Z,61.23
2023-03-11T15:48:44.398Z,60.84
2023-03-11T15:52:06.605Z,60.10
2023-03-11T15:55:29.923Z,60.47
2023-03-11T15:58:51.539Z,60.49
2023-03-11T16:02:22.292Z,60.61
2023-03-11T16:05:44.189Z,60.18
2023-03-11T16:09:06.137Z,60.30
2023-03-11T16:12:28.904Z,59.63
2023-03-11T16:15:50.342Z,59.51
2023-03-11T16:19:12.665Z,60.24
2023-03-11T16:22:37.371Z,59.23
2023-03-11T16:26:02.013Z,58.92
2023-03-11T16:29:26.968Z,59.04
2023-03-11T16:32:49.084Z,59.59
2023-03-11T16:36:12.330Z,60.27
2023-03-11T16:39:35.287Z,60.16
2023-03-11T16:43:01.084Z,60.83
2023-03-11T16:46:24.382Z,60.22
2023-03-11T16:49:46.261Z,60.29
2023-03-11T16:53:08.111Z,60.26
2023-03-11T16:56:30.088Z,61.27
2023-03-11T16:59:52.411Z,61.09
2023-03-11T17:03:17.274Z,60.94
2023-03-11T17:06:41.384Z,61.22
2023-03-11T17:10:03.396Z,61.94
2023-03-11T17:13:24.976Z,62.11
2023-03-11T17:16:46.656Z,61.84
2023-03-11T17:20:11.831Z,62.18
2023-03-11T17:23:33.803Z,61.93
2023-03-11T17:26:55.189Z,62.38
2023-03-11T17:30:27.079Z,62.16
2023-03-11T17:33:52.168Z,62.08
2023-03-11T17:37:15.341Z,62.48
2023-03-11T17:40:37.020Z,62.78
2023-03-11T17:43:58.655Z,63.62
2023-03-11T17:47:21.395Z,63.49
2023-03-11T17:50:42.936Z,63.43
2023-03-11T17:54:06.504Z,63.66
2023-03-11T17:57:28.395Z,63.95
2023-03-11T18:00:49.724Z,64.38
2023-03-11T18:04:11.874Z,64.13
2023-03-11T18:07:33.583Z,64.12
2023-03-11T18:10:59.687Z,64.23
2023-03-11T18:14:21.537Z,64.53
2023-03-11T18:17:43.529Z,65.08
2023-03-11T18:21:07.725Z,64.82
2023-03-11T18:24:29.479Z,64.96
2023-03-11T18:27:52.814Z,65.47
2023-03-11T18:31:16.427Z,65.98
2023-03-11T18:34:38.144Z,66.03
2023-03-11T18:37:59.784Z,66.53
2023-03-11T18:41:22.160Z,66.10
2023-03-11T18:44:45.440Z,66.45
2023-03-11T18:48:07.537Z,66.72
2023-03-11T18:51:31.505Z,66.69
2023-03-11T18:54:53.246Z,67.32
2023-03-11T18:58:15.486Z,67.45
2023-03-11T19:01:38.811Z,67.21
2023-03-11T19:05:00.747Z,68.06
2023-03-11T19:08:22.682Z,67.77
2023-03-11T19:11:44.332Z,68.26
2023-03-11T19:15:07.660Z,68.83
2023-03-11T19:18:30.736Z,69.15
2023-03-11T19:21:52.747Z,69.00
2023-03-11T19:25:14.573Z,69.45
2023-03-11T19:28:36.686Z,69.77
2023-03-11T19:31:58.236Z,69.82
2023-03-11T19:35:22.851Z,70.27
2023-03-11T19:38:44.560Z,70.49
2023-03-11T19:42:06.361Z,70.47
2023-03-11T19:45:29.606Z,70.60
2023-03-11T19:48:51.212Z,70.52
2023-03-11T19:52:15.396Z,70.83
2023-03-11T19:55:37.286Z,70.17
2023-03-11T19:58:59.830Z,70.27
2023-03-11T20:02:21.829Z,70.30
2023-03-11T20:05:45.787Z,70.47
2023-03-11T20:09:08.926Z,69.92
2023-03-11T20:12:30.628Z,70.64
2023-03-11T20:15:52.262Z,70.43
2023-03-11T20:19:14.034Z,70.26
2023-03-11T20:22:35.870Z,70.51
2023-03-11T20:25:58.993Z,70.49
2023-03-11T20:29:20.814Z,70.80
2023-03-11T20:32:42.460Z,70.16
2023-03-11T20:36:06.206Z,70.35
2023-03-11T20:39:31.332Z,70.85
2023-03-11T20:42:54.702Z,70.82
2023-03-11T20:46:16.496Z,70.89
2023-03-11T20:49:37.926Z,70.68
2023-03-11T20:52:59.686Z,71.05
2023-03-11T20:56:24.172Z,70.86
2023-03-11T20:59:47.385Z,70.73
2023-03-11T21:03:09.023Z,70.84
2023-03-11T21:06:32.268Z,70.48
2023-03-11T21:09:54.971Z,70.46
2023-03-11T21:13:16.650Z,70.75
2023-03-11T21:16:40.161Z,71.09
2023-03-11T21:20:01.704Z,70.97
2023-03-11T21:23:23.926Z,70.70
2023-03-11T21:26:46.421Z,70.53
2023-03-11T21:30:09.812Z,70.49
2023-03-11T21:33:33.398Z,70.55
2023-03-11T21:36:55.176Z,70.76
2023-03-11T21:40:17.244Z,70.72
2023-03-11T21:43:39.856Z,70.36
2023-03-11T21:47:01.796Z,70.91
2023-03-11T21:50:25.003Z,70.39
2023-03-11T21:53:46.722Z,70.60
2023-03-11T21:57:08.773Z,70.74
2023-03-11T22:00:30.439Z,70.38
2023-03-11T22:03:52.528Z,70.29
2023-03-11T22:07:15.789Z,70.52
2023-03-11T22:10:37.515Z,70.36
2023-03-11T22:14:00.986Z,70.14
2023-03-11T22:17:23.182Z,70.50
2023-03-11T22:20:45.426Z,70.73
2023-03-11T22:24:08.590Z,70.16
2023-03-11T22:27:30.493Z,69.94
2023-03-11T22:30:52.430Z,70.31
2023-03-11T22:34:14.824Z,70.57
2023-03-11T22:37:36.953Z,70.40
2023-03-11T22:41:00.886Z,69.93
2023-03-11T22:44:22.638Z,70.02
2023-03-11T22:47:44.647Z,70.43
2023-03-11T22:51:07.148Z,69.95
2023-03-11T22:54:28.967Z,69.70
2023-03-11T22:57:52.249Z,69.98
2023-03-11T23:01:14.122Z,69.44
2023-03-11T23:04:35.781Z,69.87
2023-03-11T23:07:57.457Z,70.11
2023-03-11T23:11:21.406Z,69.23
2023-03-11T23:14:46.231Z,69.25
2023-03-11T23:18:08.172Z,69.93
2023-03-11T23:21:31.740Z,69.44
2023-03-11T23:24:53.571Z,69.49
2023-03-11T23:28:15.759Z,69.26
2023-03-11T23:31:38.955Z,69.17
2023-03-11T23:35:00.501Z,69.04
2023-03-11T23:38:22.312Z,70.01
2023-03-11T23:41:44.115Z,69.64
2023-03-11T23:45:06.887Z,69.66
2023-03-11T23:48:30.093Z,69.87
2023-03-11T23:51:51.579Z,69.75
2023-03-11T23:55:13.517Z,70.00
2023-03-11T23:58:35.123Z,69.50
